createdAt,value
2023-03-13T00:02:59.252Z,15.40
2023-03-13T00:07:03.708Z,19.03
2023-03-13T00:11:07.630Z,14.40
2023-03-13T00:15:11.418Z,12.90
2023-03-13T00:19:14.276Z,21.83
2023-03-13T00:23:18.610Z,21.03
2023-03-13T00:27:21.813Z,18.13
2023-03-13T00:31:28.126Z,16.73
2023-03-13T00:35:31.201Z,17.70
2023-03-13T00:39:36.516Z,22.30
2023-03-13T00:43:40.637Z,12.13
2023-03-13T00:47:43.888Z,16.30
2023-03-13T00:51:46.930Z,14.60
2023-03-13T00:55:58.724Z,19.03
2023-03-13T01:00:02.771Z,15.73
2023-03-13T01:04:08.144Z,15.13
2023-03-13T01:08:11.316Z,19.50
2023-03-13T01:12:15.808Z,14.10
2023-03-13T01:16:21.136Z,16.97
2023-03-13T01:20:24.135Z,16.23
2023-03-13T01:24:27.546Z,19.23
2023-03-13T01:28:31.921Z,17.50
2023-03-13T01:32:35.157Z,16.70
2023-03-13T01:36:39.038Z,22.07
2023-03-13T01:40:43.302Z,17.47
2023-03-13T01:44:53.427Z,19.37
2023-03-13T01:49:01.498Z,19.10
2023-03-13T01:53:07.819Z,19.10
2023-03-13T01:57:18.137Z,16.20
2023-03-13T02:01:23.710Z,20.40
2023-03-13T02:05:29.499Z,14.10
2023-03-13T02:09:35.347Z,17.77
2023-03-13T02:13:38.086Z,18.27
2023-03-13T02:17:43.539Z,20.97
2023-03-13T02:21:53.942Z,14.80
2023-03-13T02:25:58.366Z,14.13
2023-03-13T02:30:10.867Z,13.27
2023-03-13T02:34:16.841Z,13.20
2023-03-13T02:38:25.109Z,12.50
2023-03-13T02:42:31.493Z,14.10
2023-03-13T02:46:46.032Z,14.43
2023-03-13T02:50:49.891Z,13.40
2023-03-13T02:54:57.260Z,10.37
2023-03-13T02:59:01.528Z,12.57
2023-03-13T03:03:05.180Z,12.07
2023-03-13T03:07:08.073Z,9.07
2023-03-13T03:11:11.625Z,9.53
2023-03-13T03:15:16.043Z,9.03
2023-03-13T03:19:21.678Z,8.80
2023-03-13T03:23:24.674Z,7.83
2023-03-13T03:27:27.936Z,11.30
2023-03-13T03:31:32.819Z,10.23
2023-03-13T03:35:38.535Z,10.50
2023-03-13T03:39:42.103Z,12.80
2023-03-13T03:43:45.113Z,14.00
2023-03-13T03:47:52.553Z,10.20
2023-03-13T03:51:55.380Z,10.40
2023-03-13T03:56:08.503Z,9.00
2023-03-13T04:00:16.275Z,10.67
2023-03-13T04:04:27.150Z,8.70
2023-03-13T04:08:37.708Z,8.53
2023-03-13T04:12:42.457Z,6.80
2023-03-13T04:16:46.364Z,8.73
2023-03-13T04:21:00.542Z,5.60
2023-03-13T04:25:04.297Z,8.50
2023-03-13T04:29:10.413Z,6.37
2023-03-13T04:33:24.156Z,5.27
2023-03-13T04:38:01.148Z,6.07
2023-03-13T04:42:21.758Z,6.70
2023-03-13T04:46:24.676Z,6.53
2023-03-13T04:50:51.936Z,6.97
2023-03-13T04:55:16.649Z,6.07
2023-03-13T04:59:25.609Z,7.83
2023-03-13T05:03:56.742Z,6.70
2023-03-13T05:08:18.258Z,6.97
2023-03-13T05:12:48.737Z,6.13
2023-03-13T05:17:05.087Z,6.57
2023-03-13T05:21:26.645Z,6.43
2023-03-13T05:25:41.886Z,6.90
2023-03-13T05:29:51.695Z,6.60
2023-03-13T05:34:23.915Z,6.57
2023-03-13T05:38:50.153Z,6.90
2023-03-13T05:43:03.946Z,6.93
2023-03-13T05:47:23.064Z,6.57
2023-03-13T05:51:55.009Z,8.47
2023-03-13T05:56:21.376Z,8.23
2023-03-13T06:00:41.216Z,8.00
2023-03-13T06:05:11.886Z,9.20
2023-03-13T06:09:15.158Z,8.40
2023-03-13T06:13:20.507Z,8.13
2023-03-13T06:17:27.309Z,8.27
2023-03-13T06:21:31.687Z,7.50
2023-03-13T06:25:35.626Z,8.20
2023-03-13T06:29:38.428Z,9.80
2023-03-13T06:33:41.151Z,8.13
2023-03-13T06:37:45.492Z,8.77
2023-03-13T06:41:48.345Z,10.33
2023-03-13T06:45:51.408Z,7.13
2023-03-13T06:49:54.394Z,7.10
2023-03-13T06:53:59.128Z,8.07
2023-03-13T06:58:02.531Z,7.43
2023-03-13T07:02:05.856Z,9.27
2023-03-13T07:06:10.064Z,9.23
2023-03-13T07:10:14.437Z,8.50
2023-03-13T07:14:18.199Z,7.60
2023-03-13T07:18:21.320Z,6.83
2023-03-13T07:22:24.187Z,7.93
2023-03-13T07:26:28.596Z,6.87
2023-03-13T07:30:31.608Z,8.40
2023-03-13T07:34:34.356Z,6.53
2023-03-13T07:38:37.433Z,9.50
2023-03-13T07:42:42.956Z,5.60
2023-03-13T07:46:46.035Z,7.23
2023-03-13T07:50:49.394Z,6.43
2023-03-13T07:54:52.145Z,6.00
2023-03-13T07:58:56.456Z,5.67
2023-03-13T08:02:59.388Z,4.80
2023-03-13T08:07:02.332Z,5.47
2023-03-13T08:11:07.699Z,8.97
2023-03-13T08:15:12.761Z,6.60
2023-03-13T08:19:15.609Z,5.80
2023-03-13T08:23:18.673Z,6.10
2023-03-13T08:27:21.554Z,7.93
2023-03-13T08:31:28.024Z,9.33
2023-03-13T08:35:31.411Z,7.10
2023-03-13T08:39:34.302Z,8.90
2023-03-13T08:43:37.473Z,8.97
2023-03-13T08:47:41.636Z,7.50
2023-03-13T08:51:44.586Z,9.27
2023-03-13T08:55:53.770Z,10.63
2023-03-13T08:59:56.662Z,7.47
2023-03-13T09:04:04.172Z,5.10
2023-03-13T09:08:07.633Z,7.43
2023-03-13T09:12:24.581Z,5.60
2023-03-13T09:16:33.881Z,6.57
2023-03-13T09:20:38.606Z,5.57
2023-03-13T09:24:42.283Z,5.73
2023-03-13T09:28:45.308Z,5.77
2023-03-13T09:32:48.380Z,5.17
2023-03-13T09:36:52.646Z,7.43
2023-03-13T09:41:05.670Z,4.87
2023-03-13T09:45:16.776Z,7.23
2023-03-13T09:49:31.222Z,5.40
2023-03-13T09:53:42.408Z,5.57
2023-03-13T09:57:50.822Z,6.87
2023-03-13T10:01:56.276Z,6.83
2023-03-13T10:06:03.329Z,6.17
2023-03-13T10:10:15.573Z,3.77
2023-03-13T10:14:23.980Z,3.70
2023-03-13T10:18:27.181Z,3.40
2023-03-13T10:22:32.985Z,4.87
2023-03-13T10:26:38.368Z,3.50
2023-03-13T10:30:47.505Z,4.67
2023-03-13T10:34:54.061Z,4.40
2023-03-13T10:38:57.011Z,3.03
2023-03-13T10:43:06.617Z,5.00
2023-03-13T10:47:13.698Z,3.20
2023-03-13T10:51:22.736Z,3.10
2023-03-13T10:55:26.931Z,4.17
2023-03-13T10:59:31.202Z,3.17
2023-03-13T11:03:34.478Z,5.53
2023-03-13T11:07:40.416Z,5.60
2023-03-13T11:11:48.509Z,3.83
2023-03-13T11:15:58.399Z,3.10
2023-03-13T11:20:09.195Z,3.57
2023-03-13T11:24:19.961Z,3.60
2023-03-13T11:28:37.261Z,3.10
2023-03-13T11:32:44.401Z,4.30
2023-03-13T11:36:54.158Z,5.23
2023-03-13T11:41:07.126Z,3.70
2023-03-13T11:45:22.634Z,3.27
2023-03-13T11:49:52.571Z,3.10
2023-03-13T11:54:12.992Z,9.37
2023-03-13T11:58:33.041Z,2.30
2023-03-13T12:02:40.697Z,3.63
2023-03-13T12:06:52.438Z,1.83
2023-03-13T12:11:05.853Z,4.43
2023-03-13T12:15:20.459Z,3.37
2023-03-13T12:19:29.315Z,2.60
2023-03-13T12:23:43.047Z,2.87
2023-03-13T12:27:50.731Z,2.33
2023-03-13T12:31:58.630Z,3.40
2023-03-13T12:36:07.664Z,2.30
2023-03-13T12:40:22.282Z,3.13
2023-03-13T12:44:25.313Z,3.30
2023-03-13T12:48:45.990Z,1.67
2023-03-13T12:53:30.891Z,2.33
2023-03-13T12:58:14.902Z,2.17
2023-03-13T13:02:21.561Z,1.97
2023-03-13T13:06:25.776Z,2.30
2023-03-13T13:10:29.711Z,2.40
2023-03-13T13:14:59.284Z,2.17
2023-03-13T13:19:45.252Z,2.00
2023-03-13T13:23:50.064Z,2.90
2023-03-13T13:27:53.204Z,2.80
2023-03-13T13:32:01.321Z,3.17
2023-03-13T13:36:42.621Z,3.67
2023-03-13T13:41:00.645Z,2.10
2023-03-13T13:45:04.798Z,2.47
2023-03-13T13:49:18.989Z,2.07
2023-03-13T13:53:31.399Z,2.67
2023-03-13T13:57:37.996Z,2.20
2023-03-13T14:01:43.152Z,2.03
2023-03-13T14:05:53.033Z,2.93
2023-03-13T14:10:07.107Z,2.53
2023-03-13T14:14:11.657Z,3.37
2023-03-13T14:18:21.443Z,2.10
2023-03-13T14:22:25.614Z,2.30
2023-03-13T14:26:30.346Z,3.13
2023-03-13T14:30:33.900Z,2.00
2023-03-13T14:34:37.557Z,2.67
2023-03-13T14:38:53.184Z,2.07
2023-03-13T14:42:58.251Z,3.97
2023-03-13T14:47:05.744Z,2.33
2023-03-13T14:51:15.542Z,3.37
2023-03-13T14:55:40.419Z,2.40
2023-03-13T15:00:17.652Z,2.17
2023-03-13T15:04:50.378Z,3.03
2023-03-13T15:09:16.778Z,4.90
2023-03-13T15:13:26.040Z,2.97
2023-03-13T15:17:29.983Z,2.70
2023-03-13T15:21:35.079Z,2.37
2023-03-13T15:25:40.541Z,2.13
2023-03-13T15:29:43.722Z,3.27
2023-03-13T15:33:47.069Z,2.83
2023-03-13T15:37:51.334Z,3.37
2023-03-13T15:41:54.159Z,2.17
2023-03-13T15:45:58.244Z,2.47
2023-03-13T15:50:03.202Z,2.00
2023-03-13T15:54:12.758Z,2.23
2023-03-13T15:58:17.155Z,3.87
2023-03-13T16:02:23.176Z,2.87
2023-03-13T16:06:31.010Z,3.77
2023-03-13T16:10:35.357Z,5.50
2023-03-13T16:14:39.656Z,4.07
2023-03-13T16:18:42.414Z,7.50
2023-03-13T16:22:45.722Z,2.50
2023-03-13T16:26:50.219Z,2.50
2023-03-13T16:30:56.205Z,4.80
2023-03-13T16:35:00.157Z,4.77
2023-03-13T16:39:08.381Z,2.30
2023-03-13T16:43:22.241Z,5.13
2023-03-13T16:47:37.130Z,2.13
2023-03-13T16:51:42.793Z,2.90
2023-03-13T16:55:46.167Z,3.37
2023-03-13T16:59:51.367Z,3.73
2023-03-13T17:03:58.635Z,2.57
2023-03-13T17:08:01.572Z,4.03
2023-03-13T17:12:04.981Z,2.93
2023-03-13T17:16:15.337Z,2.43
2023-03-13T17:20:20.982Z,3.43
2023-03-13T17:24:24.876Z,3.43
2023-03-13T17:28:28.228Z,5.27
2023-03-13T17:32:32.588Z,2.13
2023-03-13T17:36:36.959Z,2.80
2023-03-13T17:40:49.983Z,4.00
2023-03-13T17:45:09.025Z,5.70
2023-03-13T17:49:20.374Z,2.60
2023-03-13T17:53:23.432Z,3.50
2023-03-13T17:57:28.159Z,5.93
2023-03-13T18:01:33.910Z,5.20
2023-03-13T18:05:42.503Z,2.87
2023-03-13T18:09:47.747Z,4.73
2023-03-13T18:13:50.750Z,4.47
2023-03-13T18:17:54.647Z,4.17
2023-03-13T18:21:58.925Z,3.80
2023-03-13T18:26:02.382Z,3.50
2023-03-13T18:30:12.572Z,3.87
2023-03-13T18:34:15.884Z,5.33
2023-03-13T18:38:20.104Z,4.00
2023-03-13T18:42:23.494Z,6.80
2023-03-13T18:46:30.443Z,3.30
2023-03-13T18:50:33.712Z,7.70
2023-03-13T18:54:39.084Z,4.27
2023-03-13T18:58:42.786Z,6.83
2023-03-13T19:02:45.712Z,4.90
2023-03-13T19:06:49.308Z,6.47
2023-03-13T19:10:53.688Z,4.47
2023-03-13T19:14:56.504Z,5.80
2023-03-13T19:18:59.679Z,5.63
2023-03-13T19:23:02.437Z,4.43
2023-03-13T19:27:06.748Z,4.37
2023-03-13T19:31:09.730Z,9.83
2023-03-13T19:35:13.350Z,6.40
2023-03-13T19:39:18.253Z,5.27
2023-03-13T19:43:22.508Z,8.97
2023-03-13T19:47:25.694Z,7.43
2023-03-13T19:51:30.216Z,5.37
2023-03-13T19:55:33.250Z,5.60
2023-03-13T19:59:39.782Z,7.27
2023-03-13T20:03:43.695Z,8.50
2023-03-13T20:07:46.656Z,9.20
2023-03-13T20:12:03.094Z,7.97
2023-03-13T20:16:08.419Z,7.40
2023-03-13T20:20:13.684Z,6.83
2023-03-13T20:24:17.936Z,8.20
2023-03-13T20:28:20.836Z,8.87
2023-03-13T20:32:26.233Z,6.70
2023-03-13T20:36:30.355Z,6.27
2023-03-13T20:40:33.600Z,6.07
2023-03-13T20:44:36.813Z,6.53
2023-03-13T20:48:42.364Z,5.33
2023-03-13T20:52:45.335Z,5.20
2023-03-13T20:56:49.165Z,5.00
2023-03-13T21:00:51.831Z,9.47
2023-03-13T21:04:55.948Z,5.80
2023-03-13T21:08:58.763Z,7.63
2023-03-13T21:13:08.189Z,9.43
2023-03-13T21:17:13.424Z,7.23
2023-03-13T21:21:20.578Z,8.20
2023-03-13T21:25:25.209Z,4.63
2023-03-13T21:29:28.497Z,8.00
2023-03-13T21:33:32.711Z,8.00
2023-03-13T21:37:37.186Z,10.13
2023-03-13T21:41:40.914Z,8.20
2023-03-13T21:45:43.859Z,10.23
2023-03-13T21:49:46.844Z,10.63
2023-03-13T21:53:50.937Z,12.17
2023-03-13T21:57:53.810Z,9.93
2023-03-13T22:01:56.784Z,8.90
2023-03-13T22:05:59.788Z,7.17
2023-03-13T22:10:04.286Z,7.33
2023-03-13T22:14:07.319Z,4.63
2023-03-13T22:18:10.525Z,11.70
2023-03-13T22:22:13.567Z,8.60
2023-03-13T22:26:17.691Z,7.10
2023-03-13T22:30:20.627Z,8.67
2023-03-13T22:34:23.530Z,7.50
2023-03-13T22:38:26.759Z,8.00
2023-03-13T22:42:31.779Z,8.03
2023-03-13T22:46:34.600Z,7.83
2023-03-13T22:50:37.650Z,8.17
2023-03-13T22:54:40.643Z,8.00
2023-03-13T22:58:45.009Z,5.83
2023-03-13T23:02:47.882Z,5.97
2023-03-13T23:06:50.903Z,12.50
2023-03-13T23:10:53.857Z,7.27
2023-03-13T23:15:00.013Z,8.93
2023-03-13T23:19:04.130Z,5.43
2023-03-13T23:23:07.492Z,14.60
2023-03-13T23:27:10.478Z,9.53
2023-03-13T23:31:19.030Z,8.00
2023-03-13T23:35:22.152Z,8.17
2023-03-13T23:39:24.991Z,6.03
2023-03-13T23:43:27.969Z,6.13
2023-03-13T23:47:33.191Z,7.27
2023-03-13T23:51:36.139Z,5.27
2023-03-13T23:55:39.434Z,6.50
2023-03-13T23:59:42.659Z,5.00
